Aérodrome :
LOGIN :

S'inscrire | Disclaimer

   EN    FR    IT 

 










Légende :    VFR   VFR Marginal   IFR   IFR Intensif   IFR Très Intensif
Visi : 
Plafond : 
>= 8 km
>= 3000ft
5 à 8 km
1000 à 3000 ft
1500m à 5 km
500 à 1000 ft
800 à 1500m
200 à 500 ft
< 800m
< 200 ft
Symboles :   Orages  Brouillard  Fortes neiges  Fortes précipitations  Vent > 20 kt
SIGMETs :   Divers  Orages  Givrage  Turbulence  Onde Orograph.  Cendres Volcan.







- Altitude de l'aérodrome : 245 ft
- Code IATA : BIQ
- Voir les cartes d'approche


LFBZ - Biarritz

DERNIER METAR :
  • 280300Z AUTO 26006KT 7000 SCT064 BKN098 BKN170 11/09 Q1007 NOSIG

METARs EXPIRÉS :
  • 280230Z AUTO 27008KT 9999 SCT017 BKN022 BKN036 11/09 Q1008 NOSIG
  • 280200Z AUTO 23003KT 190V260 9000 BKN018 BKN024 OVC033 11/09 Q1008 NOSIG
  • 280130Z AUTO 26005KT 220V290 9999 BKN019 BKN029 OVC034 11/09 Q1009 NOSIG
  • 280100Z AUTO 27008KT 9999 OVC019 11/09 Q1009 TEMPO 4500 -RA
  • 280030Z AUTO 25006KT 210V290 9999 OVC020 11/09 Q1009 TEMPO 4500 -RA

TAF TAF LFBZ
Valide du 28 à 00h jusqu'au 01 à 00h UTC


272300Z 2800/2824 24010KT 9999 BKN025
TEMPO 2800/2802 4500 -RA BKN015 OVC020
BECMG 2807/2809 27020G30KT 3000 RA BKN010 OVC030
TEMPO 2810/2814 27030G40KT
BECMG 2812/2814 9999 NSW BKN040
BECMG 2818/2820 30012KT
BECMG 2822/2824 23008KT
Pas de NOTAMs connus pour ce terrain.
1 SIGMET publié pour la FIR Bordeaux (LFBB) :
 
Turbulence forte
LFBB SIGMET 6 VALID 280000/280400 LFPW
LFBB BORDEAUX FIR/UIR SEV TURB FCST W OF LINE N4300 W00100 - N4630 W00100 SFC/FL060 STNR NC=



MET'MAP, la Météo Aéronautique d'un coup d'oeil ! - Copyright ORBIFLY Décembre 2007 - Disclaimer

ORBIFLY MET'MAP TEAM :

Programmation & Développement : Alexandra Zaïnal
Conception & Développement : Baudouin d'Aumeries
Co-Programmation & Développement : Marc-Olivier Méhu
Soutien technique & logistique : Manuel Goepfert

Contact : metmap@orbifly.com




SOURCES & CREDITS :

   NOAA